Delaware, Ohio
Current Conditions -  °F | °C
As of 3:19 AM on Thursday 27 Nov 2014 (Local Time) from KDLZ Reporting Station
Scattered Clouds Scattered Clouds  
Wind Chill: 22°   Ceiling: Unl
Heat Index: 28°   Visibility: 7mi
Dew Point: 27°   Wind: 6mph
Humidity: 93%   Direction: 330°NNW
Pressure: 30.06"   Gusts: NA
Location:  40.3°N, 83.06°W
Report Text: KDLZ 270819Z AUTO 33005KT 7SM SCT039 M02/M03 A3006 RMK AO2
Loading
Personal Weather Stations






























Interactive Weather Map New forecast layout! Learn more

10-Day Weather Forecast

Advertisements
Track Severe Weather on mobile